sensor_id;sensor_type;location;lat;lon;timestamp;pressure;altitude;pressure_sealevel;temperature;humidity
69058;BME280;56128;37.534;-122.308;2023-03-16T00:00:40;101409.94;;;13.86;98.78
69058;BME280;56128;37.534;-122.308;2023-03-16T00:03:12;101402.13;;;13.83;96.16
69058;BME280;56128;37.534;-122.308;2023-03-16T00:05:49;101402.50;;;13.78;94.62
69058;BME280;56128;37.534;-122.308;2023-03-16T00:08:17;101404.44;;;13.76;98.11
69058;BME280;56128;37.534;-122.308;2023-03-16T00:10:44;101415.47;;;13.73;100.00
69058;BME280;56128;37.534;-122.308;2023-03-16T00:13:15;101416.91;;;13.66;100.00
69058;BME280;56128;37.534;-122.308;2023-03-16T00:15:49;101416.66;;;13.57;100.00
69058;BME280;56128;37.534;-122.308;2023-03-16T00:18:16;101413.34;;;13.54;100.00
69058;BME280;56128;37.534;-122.308;2023-03-16T00:20:43;101420.56;;;13.53;100.00
69058;BME280;56128;37.534;-122.308;2023-03-16T00:23:09;101422.91;;;13.46;100.00
69058;BME280;56128;37.534;-122.308;2023-03-16T00:25:35;101427.75;;;13.41;100.00
69058;BME280;56128;37.534;-122.308;2023-03-16T00:28:01;101403.50;;;13.30;100.00
69058;BME280;56128;37.534;-122.308;2023-03-16T00:30:29;101425.63;;;13.34;100.00
69058;BME280;56128;37.534;-122.308;2023-03-16T00:32:57;101426.97;;;13.28;100.00
69058;BME280;56128;37.534;-122.308;2023-03-16T00:35:24;101423.53;;;13.26;100.00
69058;BME280;56128;37.534;-122.308;2023-03-16T00:37:50;101431.09;;;13.21;100.00
69058;BME280;56128;37.534;-122.308;2023-03-16T00:40:17;101429.84;;;13.13;100.00
69058;BME280;56128;37.534;-122.308;2023-03-16T00:42:43;101426.66;;;13.08;100.00
69058;BME280;56128;37.534;-122.308;2023-03-16T00:45:09;101426.91;;;13.05;100.00
69058;BME280;56128;37.534;-122.308;2023-03-16T00:47:36;101422.97;;;12.98;100.00
69058;BME280;56128;37.534;-122.308;2023-03-16T00:50:04;101423.44;;;12.92;100.00
69058;BME280;56128;37.534;-122.308;2023-03-16T00:52:30;101418.41;;;12.87;100.00
69058;BME280;56128;37.534;-122.308;2023-03-16T00:54:56;101423.59;;;12.77;100.00
69058;BME280;56128;37.534;-122.308;2023-03-16T00:57:24;101430.81;;;12.77;100.00
69058;BME280;56128;37.534;-122.308;2023-03-16T00:59:50;101435.69;;;12.72;100.00
69058;BME280;56128;37.534;-122.308;2023-03-16T01:02:18;101446.25;;;12.62;100.00
69058;BME280;56128;37.534;-122.308;2023-03-16T01:04:48;101447.44;;;12.58;100.00
69058;BME280;56128;37.534;-122.308;2023-03-16T01:07:14;101436.28;;;12.51;100.00
69058;BME280;56128;37.534;-122.308;2023-03-16T01:09:41;101437.59;;;12.45;100.00
69058;BME280;56128;37.534;-122.308;2023-03-16T01:12:13;101436.47;;;12.37;100.00
69058;BME280;56128;37.534;-122.308;2023-03-16T01:14:41;101444.84;;;12.32;100.00
69058;BME280;56128;37.534;-122.308;2023-03-16T01:17:08;101444.56;;;12.24;100.00
69058;BME280;56128;37.534;-122.308;2023-03-16T01:19:36;101440.19;;;12.10;100.00
69058;BME280;56128;37.534;-122.308;2023-03-16T01:22:04;101435.03;;;12.07;100.00
69058;BME280;56128;37.534;-122.308;2023-03-16T01:24:31;101442.56;;;12.01;100.00
69058;BME280;56128;37.534;-122.308;2023-03-16T01:26:57;101443.38;;;11.89;100.00
69058;BME280;56128;37.534;-122.308;2023-03-16T01:29:23;101454.91;;;11.78;100.00
69058;BME280;56128;37.534;-122.308;2023-03-16T01:31:49;101455.84;;;11.77;100.00
69058;BME280;56128;37.534;-122.308;2023-03-16T01:34:16;101455.84;;;11.64;100.00
69058;BME280;56128;37.534;-122.308;2023-03-16T01:36:46;101452.97;;;11.55;100.00
69058;BME280;56128;37.534;-122.308;2023-03-16T01:39:14;101451.66;;;11.47;100.00
69058;BME280;56128;37.534;-122.308;2023-03-16T01:41:44;101458.69;;;11.35;100.00
69058;BME280;56128;37.534;-122.308;2023-03-16T01:44:22;101460.09;;;11.28;100.00
69058;BME280;56128;37.534;-122.308;2023-03-16T01:46:49;101460.06;;;11.15;100.00
69058;BME280;56128;37.534;-122.308;2023-03-16T01:49:34;101461.25;;;11.11;100.00
69058;BME280;56128;37.534;-122.308;2023-03-16T01:52:09;101459.59;;;10.96;100.00
69058;BME280;56128;37.534;-122.308;2023-03-16T01:54:59;101447.97;;;10.82;100.00
69058;BME280;56128;37.534;-122.308;2023-03-16T01:57:34;101453.63;;;10.78;100.00
69058;BME280;56128;37.534;-122.308;2023-03-16T02:00:07;101456.28;;;10.65;100.00
69058;BME280;56128;37.534;-122.308;2023-03-16T02:02:45;101451.59;;;10.54;100.00
69058;BME280;56128;37.534;-122.308;2023-03-16T02:05:18;101450.59;;;10.42;100.00
69058;BME280;56128;37.534;-122.308;2023-03-16T02:07:50;101452.22;;;10.30;100.00
69058;BME280;56128;37.534;-122.308;2023-03-16T02:10:18;101453.75;;;10.20;100.00
69058;BME280;56128;37.534;-122.308;2023-03-16T02:12:45;101444.81;;;10.06;100.00
69058;BME280;56128;37.534;-122.308;2023-03-16T02:15:12;101446.25;;;9.98;100.00
69058;BME280;56128;37.534;-122.308;2023-03-16T02:17:42;101459.22;;;9.89;100.00
69058;BME280;56128;37.534;-122.308;2023-03-16T02:22:53;101453.28;;;9.70;100.00
69058;BME280;56128;37.534;-122.308;2023-03-16T02:25:23;101456.53;;;9.61;100.00
69058;BME280;56128;37.534;-122.308;2023-03-16T02:30:22;101448.28;;;9.35;100.00
69058;BME280;56128;37.534;-122.308;2023-03-16T02:32:49;101452.19;;;9.29;100.00
69058;BME280;56128;37.534;-122.308;2023-03-16T02:35:19;101462.09;;;9.27;100.00
69058;BME280;56128;37.534;-122.308;2023-03-16T02:37:46;101453.03;;;9.15;100.00
69058;BME280;56128;37.534;-122.308;2023-03-16T02:42:49;101472.34;;;9.04;100.00
69058;BME280;56128;37.534;-122.308;2023-03-16T02:45:20;101485.19;;;8.98;100.00
69058;BME280;56128;37.534;-122.308;2023-03-16T02:47:48;101479.59;;;8.86;100.00
69058;BME280;56128;37.534;-122.308;2023-03-16T02:50:18;101481.59;;;8.83;100.00
69058;BME280;56128;37.534;-122.308;2023-03-16T02:52:44;101473.25;;;8.73;100.00
69058;BME280;56128;37.534;-122.308;2023-03-16T02:55:12;101487.72;;;8.69;100.00
69058;BME280;56128;37.534;-122.308;2023-03-16T02:57:38;101486.34;;;8.61;100.00
69058;BME280;56128;37.534;-122.308;2023-03-16T03:00:05;101487.56;;;8.56;100.00
69058;BME280;56128;37.534;-122.308;2023-03-16T03:02:39;101487.91;;;8.50;100.00
69058;BME280;56128;37.534;-122.308;2023-03-16T03:05:06;101482.94;;;8.42;100.00
69058;BME280;56128;37.534;-122.308;2023-03-16T03:07:32;101484.31;;;8.33;100.00
69058;BME280;56128;37.534;-122.308;2023-03-16T03:09:58;101478.38;;;8.28;100.00
69058;BME280;56128;37.534;-122.308;2023-03-16T03:12:24;101475.78;;;8.26;100.00
69058;BME280;56128;37.534;-122.308;2023-03-16T03:14:51;101476.13;;;8.20;100.00
69058;BME280;56128;37.534;-122.308;2023-03-16T03:17:17;101472.84;;;8.15;100.00
69058;BME280;56128;37.534;-122.308;2023-03-16T03:19:43;101467.84;;;8.09;100.00
69058;BME280;56128;37.534;-122.308;2023-03-16T03:22:09;101451.34;;;8.02;100.00
69058;BME280;56128;37.534;-122.308;2023-03-16T03:24:35;101449.34;;;7.90;100.00
69058;BME280;56128;37.534;-122.308;2023-03-16T03:27:02;101458.38;;;7.87;100.00
69058;BME280;56128;37.534;-122.308;2023-03-16T03:29:31;101442.25;;;7.73;100.00
69058;BME280;56128;37.534;-122.308;2023-03-16T03:32:01;101457.47;;;7.71;100.00
69058;BME280;56128;37.534;-122.308;2023-03-16T03:34:28;101457.94;;;7.61;100.00
69058;BME280;56128;37.534;-122.308;2023-03-16T03:36:54;101462.13;;;7.50;100.00
69058;BME280;56128;37.534;-122.308;2023-03-16T03:39:21;101470.25;;;7.46;100.00
69058;BME280;56128;37.534;-122.308;2023-03-16T03:41:47;101472.63;;;7.35;100.00
69058;BME280;56128;37.534;-122.308;2023-03-16T03:44:13;101478.03;;;7.34;100.00
69058;BME280;56128;37.534;-122.308;2023-03-16T03:46:39;101475.66;;;7.27;100.00
69058;BME280;56128;37.534;-122.308;2023-03-16T03:49:06;101476.78;;;7.23;100.00
69058;BME280;56128;37.534;-122.308;2023-03-16T03:51:32;101481.47;;;7.18;100.00
69058;BME280;56128;37.534;-122.308;2023-03-16T03:53:58;101479.03;;;7.13;100.00
69058;BME280;56128;37.534;-122.308;2023-03-16T03:56:25;101473.09;;;7.08;100.00
69058;BME280;56128;37.534;-122.308;2023-03-16T03:59:11;101459.38;;;6.98;100.00
69058;BME280;56128;37.534;-122.308;2023-03-16T04:01:38;101471.91;;;6.96;100.00
69058;BME280;56128;37.534;-122.308;2023-03-16T04:04:04;101470.31;;;6.92;100.00
69058;BME280;56128;37.534;-122.308;2023-03-16T04:06:30;101480.41;;;6.86;100.00
69058;BME280;56128;37.534;-122.308;2023-03-16T04:08:56;101463.03;;;6.78;100.00
69058;BME280;56128;37.534;-122.308;2023-03-16T04:11:23;101475.53;;;6.76;100.00
69058;BME280;56128;37.534;-122.308;2023-03-16T04:13:50;101476.88;;;6.68;100.00
69058;BME280;56128;37.534;-122.308;2023-03-16T04:16:18;101487.56;;;6.66;100.00
69058;BME280;56128;37.534;-122.308;2023-03-16T04:18:45;101492.31;;;6.59;100.00
69058;BME280;56128;37.534;-122.308;2023-03-16T04:21:14;101496.00;;;6.57;100.00
69058;BME280;56128;37.534;-122.308;2023-03-16T04:23:41;101493.63;;;6.50;100.00
69058;BME280;56128;37.534;-122.308;2023-03-16T04:26:08;101495.56;;;6.47;100.00
69058;BME280;56128;37.534;-122.308;2023-03-16T04:28:34;101497.69;;;6.39;100.00
69058;BME280;56128;37.534;-122.308;2023-03-16T04:31:05;101490.72;;;6.36;100.00
69058;BME280;56128;37.534;-122.308;2023-03-16T04:33:33;101492.69;;;6.32;100.00
69058;BME280;56128;37.534;-122.308;2023-03-16T04:36:00;101492.03;;;6.27;100.00
69058;BME280;56128;37.534;-122.308;2023-03-16T04:38:31;101500.16;;;6.24;100.00
69058;BME280;56128;37.534;-122.308;2023-03-16T04:41:01;101502.28;;;6.16;100.00
69058;BME280;56128;37.534;-122.308;2023-03-16T04:43:27;101505.09;;;6.13;100.00
69058;BME280;56128;37.534;-122.308;2023-03-16T04:45:54;101508.69;;;6.12;100.00
69058;BME280;56128;37.534;-122.308;2023-03-16T04:48:20;101515.00;;;6.09;100.00
69058;BME280;56128;37.534;-122.308;2023-03-16T04:50:47;101518.66;;;6.07;100.00
69058;BME280;56128;37.534;-122.308;2023-03-16T04:53:13;101514.34;;;6.04;100.00
69058;BME280;56128;37.534;-122.308;2023-03-16T04:55:40;101516.41;;;5.97;100.00
69058;BME280;56128;37.534;-122.308;2023-03-16T04:58:06;101520.84;;;5.97;100.00
69058;BME280;56128;37.534;-122.308;2023-03-16T05:00:32;101529.97;;;5.91;100.00
69058;BME280;56128;37.534;-122.308;2023-03-16T05:02:58;101525.69;;;5.87;100.00
69058;BME280;56128;37.534;-122.308;2023-03-16T05:05:25;101527.56;;;5.85;100.00
69058;BME280;56128;37.534;-122.308;2023-03-16T05:07:54;101528.59;;;5.81;100.00
69058;BME280;56128;37.534;-122.308;2023-03-16T05:10:20;101536.81;;;5.76;100.00
69058;BME280;56128;37.534;-122.308;2023-03-16T05:12:46;101527.03;;;5.77;100.00
69058;BME280;56128;37.534;-122.308;2023-03-16T05:15:13;101534.34;;;5.72;100.00
69058;BME280;56128;37.534;-122.308;2023-03-16T05:17:40;101533.50;;;5.71;100.00
69058;BME280;56128;37.534;-122.308;2023-03-16T05:20:09;101534.34;;;5.72;100.00
69058;BME280;56128;37.534;-122.308;2023-03-16T05:22:39;101545.63;;;5.77;100.00
69058;BME280;56128;37.534;-122.308;2023-03-16T05:25:07;101540.50;;;5.72;100.00
69058;BME280;56128;37.534;-122.308;2023-03-16T05:27:33;101538.84;;;5.69;100.00
69058;BME280;56128;37.534;-122.308;2023-03-16T05:30:00;101539.06;;;5.65;100.00
69058;BME280;56128;37.534;-122.308;2023-03-16T05:32:26;101532.28;;;5.58;100.00
69058;BME280;56128;37.534;-122.308;2023-03-16T05:34:52;101533.28;;;5.55;100.00
69058;BME280;56128;37.534;-122.308;2023-03-16T05:37:18;101532.47;;;5.53;100.00
69058;BME280;56128;37.534;-122.308;2023-03-16T05:39:45;101530.03;;;5.48;100.00
69058;BME280;56128;37.534;-122.308;2023-03-16T05:42:11;101522.06;;;5.48;100.00
69058;BME280;56128;37.534;-122.308;2023-03-16T05:44:37;101521.34;;;5.45;100.00
69058;BME280;56128;37.534;-122.308;2023-03-16T05:47:03;101528.63;;;5.40;100.00
69058;BME280;56128;37.534;-122.308;2023-03-16T05:49:29;101524.19;;;5.40;100.00
69058;BME280;56128;37.534;-122.308;2023-03-16T05:51:56;101518.19;;;5.35;100.00
69058;BME280;56128;37.534;-122.308;2023-03-16T05:54:22;101526.75;;;5.42;100.00
69058;BME280;56128;37.534;-122.308;2023-03-16T05:56:48;101531.28;;;5.40;100.00
69058;BME280;56128;37.534;-122.308;2023-03-16T05:59:15;101540.09;;;5.40;100.00
69058;BME280;56128;37.534;-122.308;2023-03-16T06:01:42;101538.56;;;5.34;100.00
69058;BME280;56128;37.534;-122.308;2023-03-16T06:04:09;101535.13;;;5.32;100.00
69058;BME280;56128;37.534;-122.308;2023-03-16T06:06:36;101536.22;;;5.27;100.00
69058;BME280;56128;37.534;-122.308;2023-03-16T06:09:02;101553.94;;;5.26;100.00
69058;BME280;56128;37.534;-122.308;2023-03-16T06:11:28;101552.28;;;5.24;100.00
69058;BME280;56128;37.534;-122.308;2023-03-16T06:13:58;101560.34;;;5.20;100.00
69058;BME280;56128;37.534;-122.308;2023-03-16T06:16:24;101557.91;;;5.16;100.00
69058;BME280;56128;37.534;-122.308;2023-03-16T06:18:51;101559.75;;;5.14;100.00
69058;BME280;56128;37.534;-122.308;2023-03-16T06:21:17;101549.28;;;5.11;100.00
69058;BME280;56128;37.534;-122.308;2023-03-16T06:23:43;101545.81;;;5.09;100.00
69058;BME280;56128;37.534;-122.308;2023-03-16T06:26:10;101559.25;;;5.04;100.00
69058;BME280;56128;37.534;-122.308;2023-03-16T06:28:36;101549.78;;;4.98;100.00
69058;BME280;56128;37.534;-122.308;2023-03-16T06:31:02;101560.50;;;4.95;100.00
69058;BME280;56128;37.534;-122.308;2023-03-16T06:33:28;101561.63;;;4.90;100.00
69058;BME280;56128;37.534;-122.308;2023-03-16T06:35:54;101552.16;;;4.82;100.00
69058;BME280;56128;37.534;-122.308;2023-03-16T06:38:21;101553.09;;;4.81;100.00
69058;BME280;56128;37.534;-122.308;2023-03-16T06:40:53;101556.88;;;4.74;100.00
69058;BME280;56128;37.534;-122.308;2023-03-16T06:43:19;101546.53;;;4.68;100.00
69058;BME280;56128;37.534;-122.308;2023-03-16T06:45:46;101556.13;;;4.70;100.00
69058;BME280;56128;37.534;-122.308;2023-03-16T06:48:12;101570.28;;;4.71;100.00
69058;BME280;56128;37.534;-122.308;2023-03-16T06:50:38;101578.22;;;4.71;100.00
69058;BME280;56128;37.534;-122.308;2023-03-16T06:53:04;101592.31;;;4.73;100.00
69058;BME280;56128;37.534;-122.308;2023-03-16T06:55:31;101596.84;;;4.69;100.00
69058;BME280;56128;37.534;-122.308;2023-03-16T06:57:57;101603.16;;;4.67;100.00
69058;BME280;56128;37.534;-122.308;2023-03-16T07:00:23;101604.16;;;4.63;100.00
69058;BME280;56128;37.534;-122.308;2023-03-16T07:02:49;101610.50;;;4.59;100.00
69058;BME280;56128;37.534;-122.308;2023-03-16T07:05:16;101596.50;;;4.55;100.00
69058;BME280;56128;37.534;-122.308;2023-03-16T07:07:43;101603.41;;;4.59;100.00
69058;BME280;56128;37.534;-122.308;2023-03-16T07:10:12;101604.22;;;4.61;100.00
69058;BME280;56128;37.534;-122.308;2023-03-16T07:12:39;101588.56;;;4.55;100.00
69058;BME280;56128;37.534;-122.308;2023-03-16T07:15:07;101602.38;;;4.63;100.00
69058;BME280;56128;37.534;-122.308;2023-03-16T07:17:33;101603.38;;;4.61;100.00
69058;BME280;56128;37.534;-122.308;2023-03-16T07:20:00;101598.91;;;4.61;100.00
69058;BME280;56128;37.534;-122.308;2023-03-16T07:22:30;101585.97;;;4.53;100.00
69058;BME280;56128;37.534;-122.308;2023-03-16T07:24:57;101595.47;;;4.59;100.00
69058;BME280;56128;37.534;-122.308;2023-03-16T07:27:24;101596.34;;;4.60;100.00
69058;BME280;56128;37.534;-122.308;2023-03-16T07:29:50;101591.03;;;4.60;100.00
69058;BME280;56128;37.534;-122.308;2023-03-16T07:32:20;101577.09;;;4.54;100.00
69058;BME280;56128;37.534;-122.308;2023-03-16T07:34:47;101585.75;;;4.60;100.00
69058;BME280;56128;37.534;-122.308;2023-03-16T07:37:13;101581.22;;;4.62;100.00
69058;BME280;56128;37.534;-122.308;2023-03-16T07:39:41;101576.88;;;4.61;100.00
69058;BME280;56128;37.534;-122.308;2023-03-16T07:42:07;101569.00;;;4.58;100.00
69058;BME280;56128;37.534;-122.308;2023-03-16T07:44:33;101568.22;;;4.55;100.00
69058;BME280;56128;37.534;-122.308;2023-03-16T07:46:59;101574.47;;;4.53;100.00
69058;BME280;56128;37.534;-122.308;2023-03-16T07:49:26;101578.19;;;4.49;100.00
69058;BME280;56128;37.534;-122.308;2023-03-16T07:51:53;101579.22;;;4.45;100.00
69058;BME280;56128;37.534;-122.308;2023-03-16T07:54:19;101586.47;;;4.39;100.00
69058;BME280;56128;37.534;-122.308;2023-03-16T07:56:45;101583.16;;;4.34;100.00
69058;BME280;56128;37.534;-122.308;2023-03-16T07:59:11;101584.16;;;4.30;100.00
69058;BME280;56128;37.534;-122.308;2023-03-16T08:01:37;101585.66;;;4.37;100.00
69058;BME280;56128;37.534;-122.308;2023-03-16T08:04:04;101572.31;;;4.41;100.00
69058;BME280;56128;37.534;-122.308;2023-03-16T08:06:30;101563.41;;;4.42;100.00
69058;BME280;56128;37.534;-122.308;2023-03-16T08:08:56;101569.19;;;4.53;100.00
69058;BME280;56128;37.534;-122.308;2023-03-16T08:11:23;101566.06;;;4.42;100.00
69058;BME280;56128;37.534;-122.308;2023-03-16T08:13:50;101572.41;;;4.37;100.00
69058;BME280;56128;37.534;-122.308;2023-03-16T08:16:25;101558.63;;;4.28;100.00
69058;BME280;56128;37.534;-122.308;2023-03-16T08:18:54;101562.09;;;4.30;100.00
69058;BME280;56128;37.534;-122.308;2023-03-16T08:21:21;101561.28;;;4.28;100.00
69058;BME280;56128;37.534;-122.308;2023-03-16T08:23:48;101570.13;;;4.28;100.00
69058;BME280;56128;37.534;-122.308;2023-03-16T08:26:15;101566.59;;;4.28;100.00
69058;BME280;56128;37.534;-122.308;2023-03-16T08:28:42;101571.94;;;4.26;100.00
69058;BME280;56128;37.534;-122.308;2023-03-16T08:31:10;101571.84;;;4.29;100.00
69058;BME280;56128;37.534;-122.308;2023-03-16T08:33:39;101562.97;;;4.30;100.00
69058;BME280;56128;37.534;-122.308;2023-03-16T08:36:08;101566.50;;;4.31;100.00
69058;BME280;56128;37.534;-122.308;2023-03-16T08:38:34;101569.47;;;4.21;100.00
69058;BME280;56128;37.534;-122.308;2023-03-16T08:41:00;101571.19;;;4.22;100.00
69058;BME280;56128;37.534;-122.308;2023-03-16T08:43:27;101576.63;;;4.19;100.00
69058;BME280;56128;37.534;-122.308;2023-03-16T08:45:53;101578.44;;;4.17;100.00
69058;BME280;56128;37.534;-122.308;2023-03-16T08:48:20;101590.84;;;4.17;100.00
69058;BME280;56128;37.534;-122.308;2023-03-16T08:50:47;101589.16;;;4.14;100.00
69058;BME280;56128;37.534;-122.308;2023-03-16T08:53:13;101596.31;;;4.12;100.00
69058;BME280;56128;37.534;-122.308;2023-03-16T08:55:40;101595.59;;;4.07;100.00
69058;BME280;56128;37.534;-122.308;2023-03-16T08:58:08;101601.94;;;4.03;100.00
69058;BME280;56128;37.534;-122.308;2023-03-16T09:00:35;101602.91;;;4.00;100.00
69058;BME280;56128;37.534;-122.308;2023-03-16T09:03:02;101610.88;;;3.99;100.00
69058;BME280;56128;37.534;-122.308;2023-03-16T09:05:29;101607.31;;;4.00;100.00
69058;BME280;56128;37.534;-122.308;2023-03-16T09:07:56;101600.25;;;4.00;100.00
69058;BME280;56128;37.534;-122.308;2023-03-16T09:10:22;101591.66;;;3.94;100.00
69058;BME280;56128;37.534;-122.308;2023-03-16T09:12:49;101600.41;;;3.96;100.00
69058;BME280;56128;37.534;-122.308;2023-03-16T09:15:18;101595.13;;;3.96;100.00
69058;BME280;56128;37.534;-122.308;2023-03-16T09:17:46;101592.56;;;3.93;100.00
69058;BME280;56128;37.534;-122.308;2023-03-16T09:20:15;101596.94;;;3.94;100.00
69058;BME280;56128;37.534;-122.308;2023-03-16T09:22:46;101589.06;;;3.92;100.00
69058;BME280;56128;37.534;-122.308;2023-03-16T09:25:12;101596.09;;;3.93;100.00
69058;BME280;56128;37.534;-122.308;2023-03-16T09:27:39;101592.63;;;3.91;100.00
69058;BME280;56128;37.534;-122.308;2023-03-16T09:30:07;101592.75;;;3.88;100.00
69058;BME280;56128;37.534;-122.308;2023-03-16T09:32:33;101590.38;;;3.80;100.00
69058;BME280;56128;37.534;-122.308;2023-03-16T09:35:02;101601.81;;;3.81;100.00
69058;BME280;56128;37.534;-122.308;2023-03-16T09:37:31;101602.78;;;3.78;100.00
69058;BME280;56128;37.534;-122.308;2023-03-16T09:39:58;101594.19;;;3.71;100.00
69058;BME280;56128;37.534;-122.308;2023-03-16T09:42:43;101609.13;;;3.72;100.00
69058;BME280;56128;37.534;-122.308;2023-03-16T09:45:17;101609.19;;;3.71;100.00
69058;BME280;56128;37.534;-122.308;2023-03-16T09:47:49;101607.53;;;3.68;100.00
69058;BME280;56128;37.534;-122.308;2023-03-16T09:50:24;101611.06;;;3.67;100.00
69058;BME280;56128;37.534;-122.308;2023-03-16T09:53:12;101612.81;;;3.68;100.00
69058;BME280;56128;37.534;-122.308;2023-03-16T09:55:46;101619.84;;;3.69;100.00
69058;BME280;56128;37.534;-122.308;2023-03-16T09:58:18;101625.97;;;3.71;100.00
69058;BME280;56128;37.534;-122.308;2023-03-16T10:06:08;101632.16;;;3.70;100.00
69058;BME280;56128;37.534;-122.308;2023-03-16T10:08:40;101645.34;;;3.72;100.00
69058;BME280;56128;37.534;-122.308;2023-03-16T10:14:29;101661.16;;;3.73;100.00
69058;BME280;56128;37.534;-122.308;2023-03-16T10:17:41;101656.78;;;3.72;100.00
69058;BME280;56128;37.534;-122.308;2023-03-16T10:20:15;101655.03;;;3.73;100.00
69058;BME280;56128;37.534;-122.308;2023-03-16T10:22:44;101652.44;;;3.70;100.00
69058;BME280;56128;37.534;-122.308;2023-03-16T10:27:52;101651.69;;;3.66;100.00
69058;BME280;56128;37.534;-122.308;2023-03-16T10:32:51;101652.06;;;3.55;100.00
69058;BME280;56128;37.534;-122.308;2023-03-16T10:37:52;101650.41;;;3.51;100.00
69058;BME280;56128;37.534;-122.308;2023-03-16T10:40:18;101635.22;;;3.58;100.00
69058;BME280;56128;37.534;-122.308;2023-03-16T10:42:46;101642.22;;;3.86;100.00
69058;BME280;56128;37.534;-122.308;2023-03-16T10:45:33;101642.00;;;3.92;100.00
69058;BME280;56128;37.534;-122.308;2023-03-16T10:48:08;101640.59;;;3.82;100.00
69058;BME280;56128;37.534;-122.308;2023-03-16T10:50:39;101642.00;;;3.92;100.00
69058;BME280;56128;37.534;-122.308;2023-03-16T10:53:34;101646.75;;;3.82;100.00
69058;BME280;56128;37.534;-122.308;2023-03-16T10:56:11;101638.81;;;4.07;100.00
69058;BME280;56128;37.534;-122.308;2023-03-16T10:58:41;101642.91;;;4.18;100.00
69058;BME280;56128;37.534;-122.308;2023-03-16T11:01:24;101630.03;;;4.32;100.00
69058;BME280;56128;37.534;-122.308;2023-03-16T11:03:55;101639.75;;;4.32;100.00
69058;BME280;56128;37.534;-122.308;2023-03-16T11:06:25;101638.31;;;4.23;100.00
69058;BME280;56128;37.534;-122.308;2023-03-16T11:09:17;101645.88;;;4.09;100.00
69058;BME280;56128;37.534;-122.308;2023-03-16T11:11:48;101644.41;;;4.00;100.00
69058;BME280;56128;37.534;-122.308;2023-03-16T11:14:19;101644.94;;;4.10;100.00
69058;BME280;56128;37.534;-122.308;2023-03-16T11:17:01;101647.88;;;4.02;100.00
69058;BME280;56128;37.534;-122.308;2023-03-16T11:19:32;101643.81;;;3.92;100.00
69058;BME280;56128;37.534;-122.308;2023-03-16T11:24:49;101648.69;;;3.77;100.00
69058;BME280;56128;37.534;-122.308;2023-03-16T11:27:32;101645.34;;;3.72;100.00
69058;BME280;56128;37.534;-122.308;2023-03-16T11:30:03;101645.47;;;3.67;100.00
69058;BME280;56128;37.534;-122.308;2023-03-16T11:32:36;101643.81;;;3.65;100.00
69058;BME280;56128;37.534;-122.308;2023-03-16T11:35:13;101634.31;;;3.59;100.00
69058;BME280;56128;37.534;-122.308;2023-03-16T11:37:49;101644.00;;;3.58;100.00
69058;BME280;56128;37.534;-122.308;2023-03-16T11:45:54;101649.63;;;3.49;100.00
69058;BME280;56128;37.534;-122.308;2023-03-16T11:51:04;101659.31;;;3.49;100.00
69058;BME280;56128;37.534;-122.308;2023-03-16T11:56:32;101647.03;;;3.48;100.00
69058;BME280;56128;37.534;-122.308;2023-03-16T11:59:26;101656.63;;;3.50;100.00
69058;BME280;56128;37.534;-122.308;2023-03-16T12:12:25;101653.06;;;3.51;100.00
69058;BME280;56128;37.534;-122.308;2023-03-16T12:17:53;101656.78;;;3.46;100.00
69058;BME280;56128;37.534;-122.308;2023-03-16T12:20:40;101654.22;;;3.42;100.00
69058;BME280;56128;37.534;-122.308;2023-03-16T12:23:18;101656.06;;;3.40;100.00
69058;BME280;56128;37.534;-122.308;2023-03-16T12:25:49;101661.34;;;3.40;100.00
69058;BME280;56128;37.534;-122.308;2023-03-16T12:28:24;101658.78;;;3.37;100.00
69058;BME280;56128;37.534;-122.308;2023-03-16T12:31:16;101668.47;;;3.38;100.00
69058;BME280;56128;37.534;-122.308;2023-03-16T12:39:07;101679.81;;;3.42;100.00
69058;BME280;56128;37.534;-122.308;2023-03-16T12:44:26;101683.19;;;3.47;100.00
69058;BME280;56128;37.534;-122.308;2023-03-16T12:47:01;101684.06;;;3.48;100.00
69058;BME280;56128;37.534;-122.308;2023-03-16T12:49:33;101682.22;;;3.50;100.00
69058;BME280;56128;37.534;-122.308;2023-03-16T12:52:07;101692.72;;;3.53;100.00
69058;BME280;56128;37.534;-122.308;2023-03-16T12:54:34;101691.81;;;3.54;100.00
69058;BME280;56128;37.534;-122.308;2023-03-16T12:57:03;101692.72;;;3.53;100.00
69058;BME280;56128;37.534;-122.308;2023-03-16T12:59:41;101687.44;;;3.53;100.00
69058;BME280;56128;37.534;-122.308;2023-03-16T13:02:15;101693.50;;;3.56;100.00
69058;BME280;56128;37.534;-122.308;2023-03-16T13:04:45;101694.41;;;3.55;100.00
69058;BME280;56128;37.534;-122.308;2023-03-16T13:07:23;101698.81;;;3.55;100.00
69058;BME280;56128;37.534;-122.308;2023-03-16T13:10:08;101684.78;;;3.53;100.00
69058;BME280;56128;37.534;-122.308;2023-03-16T13:12:38;101687.50;;;3.50;100.00
69058;BME280;56128;37.534;-122.308;2023-03-16T13:18:18;101689.31;;;3.49;100.00
69058;BME280;56128;37.534;-122.308;2023-03-16T13:20:57;101697.13;;;3.52;100.00
69058;BME280;56128;37.534;-122.308;2023-03-16T13:23:46;101697.28;;;3.48;100.00
69058;BME280;56128;37.534;-122.308;2023-03-16T13:26:40;101696.47;;;3.46;100.00
69058;BME280;56128;37.534;-122.308;2023-03-16T13:29:19;101698.44;;;3.39;100.00
69058;BME280;56128;37.534;-122.308;2023-03-16T13:31:48;101694.16;;;3.35;100.00